sensor_id;sensor_type;location;lat;lon;timestamp;P1;durP1;ratioP1;P2;durP2;ratioP2
28910;SDS011;16028;42.642;23.310;2023-04-19T00:00:04;3.22;;;1.63;;
28910;SDS011;16028;42.642;23.310;2023-04-19T00:02:33;1.52;;;1.33;;
28910;SDS011;16028;42.642;23.310;2023-04-19T00:05:00;3.55;;;1.60;;
28910;SDS011;16028;42.642;23.310;2023-04-19T00:07:29;2.03;;;1.40;;
28910;SDS011;16028;42.642;23.310;2023-04-19T00:09:56;2.20;;;1.52;;
28910;SDS011;16028;42.642;23.310;2023-04-19T00:12:22;1.60;;;1.50;;
28910;SDS011;16028;42.642;23.310;2023-04-19T00:14:49;1.52;;;1.42;;
28910;SDS011;16028;42.642;23.310;2023-04-19T00:17:16;2.03;;;1.52;;
28910;SDS011;16028;42.642;23.310;2023-04-19T00:19:44;1.83;;;1.65;;
28910;SDS011;16028;42.642;23.310;2023-04-19T00:22:11;1.92;;;1.50;;
28910;SDS011;16028;42.642;23.310;2023-04-19T00:24:39;5.85;;;1.55;;
28910;SDS011;16028;42.642;23.310;2023-04-19T00:27:05;2.78;;;1.98;;
28910;SDS011;16028;42.642;23.310;2023-04-19T00:29:32;1.70;;;1.60;;
28910;SDS011;16028;42.642;23.310;2023-04-19T00:31:59;2.20;;;1.73;;
28910;SDS011;16028;42.642;23.310;2023-04-19T00:34:26;2.17;;;1.70;;
28910;SDS011;16028;42.642;23.310;2023-04-19T00:36:52;1.85;;;1.75;;
28910;SDS011;16028;42.642;23.310;2023-04-19T00:39:19;2.17;;;1.80;;
28910;SDS011;16028;42.642;23.310;2023-04-19T00:41:47;2.40;;;1.90;;
28910;SDS011;16028;42.642;23.310;2023-04-19T00:44:14;1.80;;;1.70;;
28910;SDS011;16028;42.642;23.310;2023-04-19T00:46:41;1.95;;;1.73;;
28910;SDS011;16028;42.642;23.310;2023-04-19T00:49:08;1.55;;;1.45;;
28910;SDS011;16028;42.642;23.310;2023-04-19T00:51:35;2.60;;;1.83;;
28910;SDS011;16028;42.642;23.310;2023-04-19T00:54:02;1.98;;;1.67;;
28910;SDS011;16028;42.642;23.310;2023-04-19T00:56:29;2.90;;;1.90;;
28910;SDS011;16028;42.642;23.310;2023-04-19T00:58:58;2.45;;;2.17;;
28910;SDS011;16028;42.642;23.310;2023-04-19T01:01:25;2.00;;;1.80;;
28910;SDS011;16028;42.642;23.310;2023-04-19T01:03:52;2.75;;;2.03;;
28910;SDS011;16028;42.642;23.310;2023-04-19T01:06:19;1.98;;;1.73;;
28910;SDS011;16028;42.642;23.310;2023-04-19T01:08:46;2.33;;;1.95;;
28910;SDS011;16028;42.642;23.310;2023-04-19T01:11:13;2.28;;;2.00;;
28910;SDS011;16028;42.642;23.310;2023-04-19T01:13:40;1.83;;;1.73;;
28910;SDS011;16028;42.642;23.310;2023-04-19T01:16:08;2.50;;;2.00;;
28910;SDS011;16028;42.642;23.310;2023-04-19T01:18:35;2.78;;;1.70;;
28910;SDS011;16028;42.642;23.310;2023-04-19T01:21:04;5.28;;;2.00;;
28910;SDS011;16028;42.642;23.310;2023-04-19T01:23:34;2.95;;;1.88;;
28910;SDS011;16028;42.642;23.310;2023-04-19T01:26:03;2.72;;;2.20;;
28910;SDS011;16028;42.642;23.310;2023-04-19T01:28:30;2.38;;;1.75;;
28910;SDS011;16028;42.642;23.310;2023-04-19T01:30:57;2.00;;;1.83;;
28910;SDS011;16028;42.642;23.310;2023-04-19T01:33:23;2.17;;;1.98;;
28910;SDS011;16028;42.642;23.310;2023-04-19T01:35:50;3.95;;;2.13;;
28910;SDS011;16028;42.642;23.310;2023-04-19T01:38:17;4.18;;;1.90;;
28910;SDS011;16028;42.642;23.310;2023-04-19T01:40:45;2.67;;;1.92;;
28910;SDS011;16028;42.642;23.310;2023-04-19T01:43:13;1.98;;;1.75;;
28910;SDS011;16028;42.642;23.310;2023-04-19T01:45:41;2.40;;;1.77;;
28910;SDS011;16028;42.642;23.310;2023-04-19T01:48:08;2.88;;;2.20;;
28910;SDS011;16028;42.642;23.310;2023-04-19T01:50:34;2.47;;;2.10;;
28910;SDS011;16028;42.642;23.310;2023-04-19T01:53:01;3.05;;;1.98;;
28910;SDS011;16028;42.642;23.310;2023-04-19T01:55:28;3.92;;;2.50;;
28910;SDS011;16028;42.642;23.310;2023-04-19T01:57:56;2.35;;;2.05;;
28910;SDS011;16028;42.642;23.310;2023-04-19T02:00:23;4.57;;;2.15;;
28910;SDS011;16028;42.642;23.310;2023-04-19T02:02:50;2.45;;;2.22;;
28910;SDS011;16028;42.642;23.310;2023-04-19T02:05:17;2.58;;;2.28;;
28910;SDS011;16028;42.642;23.310;2023-04-19T02:07:43;5.90;;;2.17;;
28910;SDS011;16028;42.642;23.310;2023-04-19T02:10:10;2.58;;;2.10;;
28910;SDS011;16028;42.642;23.310;2023-04-19T02:12:37;3.17;;;2.45;;
28910;SDS011;16028;42.642;23.310;2023-04-19T02:15:06;3.35;;;2.28;;
28910;SDS011;16028;42.642;23.310;2023-04-19T02:17:33;2.35;;;2.15;;
28910;SDS011;16028;42.642;23.310;2023-04-19T02:20:01;2.85;;;2.58;;
28910;SDS011;16028;42.642;23.310;2023-04-19T02:22:29;2.80;;;2.30;;
28910;SDS011;16028;42.642;23.310;2023-04-19T02:24:55;3.20;;;2.65;;
28910;SDS011;16028;42.642;23.310;2023-04-19T02:27:22;2.70;;;2.47;;
28910;SDS011;16028;42.642;23.310;2023-04-19T02:29:49;3.65;;;3.17;;
28910;SDS011;16028;42.642;23.310;2023-04-19T02:32:17;3.30;;;2.70;;
28910;SDS011;16028;42.642;23.310;2023-04-19T02:34:44;6.90;;;3.28;;
28910;SDS011;16028;42.642;23.310;2023-04-19T02:37:11;3.08;;;2.78;;
28910;SDS011;16028;42.642;23.310;2023-04-19T02:39:38;4.68;;;2.60;;
28910;SDS011;16028;42.642;23.310;2023-04-19T02:42:05;3.20;;;2.90;;
28910;SDS011;16028;42.642;23.310;2023-04-19T02:44:32;3.85;;;2.70;;
28910;SDS011;16028;42.642;23.310;2023-04-19T02:46:59;5.03;;;2.90;;
28910;SDS011;16028;42.642;23.310;2023-04-19T02:49:29;4.43;;;3.13;;
28910;SDS011;16028;42.642;23.310;2023-04-19T02:52:00;4.22;;;3.35;;
28910;SDS011;16028;42.642;23.310;2023-04-19T02:54:27;3.85;;;3.40;;
28910;SDS011;16028;42.642;23.310;2023-04-19T02:56:53;3.80;;;2.92;;
28910;SDS011;16028;42.642;23.310;2023-04-19T02:59:20;4.07;;;3.28;;
28910;SDS011;16028;42.642;23.310;2023-04-19T03:01:47;4.82;;;3.30;;
28910;SDS011;16028;42.642;23.310;2023-04-19T03:04:14;4.82;;;3.30;;
28910;SDS011;16028;42.642;23.310;2023-04-19T03:06:43;5.32;;;3.42;;
28910;SDS011;16028;42.642;23.310;2023-04-19T03:09:10;3.70;;;3.30;;
28910;SDS011;16028;42.642;23.310;2023-04-19T03:11:37;4.38;;;3.38;;
28910;SDS011;16028;42.642;23.310;2023-04-19T03:14:03;4.60;;;4.00;;
28910;SDS011;16028;42.642;23.310;2023-04-19T03:16:30;4.95;;;3.88;;
28910;SDS011;16028;42.642;23.310;2023-04-19T03:18:57;4.18;;;3.50;;
28910;SDS011;16028;42.642;23.310;2023-04-19T03:21:24;5.03;;;3.38;;
28910;SDS011;16028;42.642;23.310;2023-04-19T03:23:54;4.78;;;3.92;;
28910;SDS011;16028;42.642;23.310;2023-04-19T03:26:21;8.85;;;3.85;;
28910;SDS011;16028;42.642;23.310;2023-04-19T03:28:48;4.30;;;3.75;;
28910;SDS011;16028;42.642;23.310;2023-04-19T03:31:15;8.02;;;3.47;;
28910;SDS011;16028;42.642;23.310;2023-04-19T03:33:41;6.68;;;4.63;;
28910;SDS011;16028;42.642;23.310;2023-04-19T03:36:08;3.90;;;3.15;;
28910;SDS011;16028;42.642;23.310;2023-04-19T03:38:35;4.63;;;3.50;;
28910;SDS011;16028;42.642;23.310;2023-04-19T03:41:03;4.25;;;3.63;;
28910;SDS011;16028;42.642;23.310;2023-04-19T03:43:30;4.32;;;3.55;;
28910;SDS011;16028;42.642;23.310;2023-04-19T03:45:57;7.90;;;3.80;;
28910;SDS011;16028;42.642;23.310;2023-04-19T03:48:23;4.43;;;3.42;;
28910;SDS011;16028;42.642;23.310;2023-04-19T03:50:50;5.60;;;3.83;;
28910;SDS011;16028;42.642;23.310;2023-04-19T03:53:17;5.22;;;3.63;;
28910;SDS011;16028;42.642;23.310;2023-04-19T03:55:44;5.68;;;3.60;;
28910;SDS011;16028;42.642;23.310;2023-04-19T03:58:12;5.55;;;3.45;;
28910;SDS011;16028;42.642;23.310;2023-04-19T04:00:40;6.82;;;3.90;;
28910;SDS011;16028;42.642;23.310;2023-04-19T04:03:07;4.22;;;3.42;;
28910;SDS011;16028;42.642;23.310;2023-04-19T04:05:33;4.70;;;3.80;;
28910;SDS011;16028;42.642;23.310;2023-04-19T04:08:00;3.42;;;3.13;;
28910;SDS011;16028;42.642;23.310;2023-04-19T04:10:29;4.28;;;3.88;;
28910;SDS011;16028;42.642;23.310;2023-04-19T04:12:56;6.07;;;3.70;;
28910;SDS011;16028;42.642;23.310;2023-04-19T04:15:25;6.15;;;3.38;;
28910;SDS011;16028;42.642;23.310;2023-04-19T04:17:51;4.70;;;3.88;;
28910;SDS011;16028;42.642;23.310;2023-04-19T04:20:18;4.93;;;3.75;;
28910;SDS011;16028;42.642;23.310;2023-04-19T04:22:45;4.18;;;3.78;;
28910;SDS011;16028;42.642;23.310;2023-04-19T04:25:12;5.05;;;3.90;;
28910;SDS011;16028;42.642;23.310;2023-04-19T04:27:40;5.75;;;3.20;;
28910;SDS011;16028;42.642;23.310;2023-04-19T04:30:08;8.32;;;3.58;;
28910;SDS011;16028;42.642;23.310;2023-04-19T04:32:37;11.05;;;4.22;;
28910;SDS011;16028;42.642;23.310;2023-04-19T04:35:05;8.05;;;4.30;;
28910;SDS011;16028;42.642;23.310;2023-04-19T04:37:33;7.43;;;4.18;;
28910;SDS011;16028;42.642;23.310;2023-04-19T04:40:00;5.78;;;4.95;;
28910;SDS011;16028;42.642;23.310;2023-04-19T04:42:29;7.75;;;4.75;;
28910;SDS011;16028;42.642;23.310;2023-04-19T04:44:56;5.95;;;3.92;;
28910;SDS011;16028;42.642;23.310;2023-04-19T04:47:29;8.07;;;4.85;;
28910;SDS011;16028;42.642;23.310;2023-04-19T04:49:57;6.65;;;4.18;;
28910;SDS011;16028;42.642;23.310;2023-04-19T04:52:24;5.30;;;4.00;;
28910;SDS011;16028;42.642;23.310;2023-04-19T04:54:51;6.30;;;4.43;;
28910;SDS011;16028;42.642;23.310;2023-04-19T04:57:18;10.18;;;4.72;;
28910;SDS011;16028;42.642;23.310;2023-04-19T04:59:44;5.47;;;4.43;;
28910;SDS011;16028;42.642;23.310;2023-04-19T05:02:12;6.32;;;4.53;;
28910;SDS011;16028;42.642;23.310;2023-04-19T05:04:39;7.68;;;5.00;;
28910;SDS011;16028;42.642;23.310;2023-04-19T05:07:07;11.48;;;4.53;;
28910;SDS011;16028;42.642;23.310;2023-04-19T05:09:34;6.85;;;4.88;;
28910;SDS011;16028;42.642;23.310;2023-04-19T05:12:00;5.95;;;4.18;;
28910;SDS011;16028;42.642;23.310;2023-04-19T05:14:27;7.68;;;4.90;;
28910;SDS011;16028;42.642;23.310;2023-04-19T05:16:54;9.82;;;4.60;;
28910;SDS011;16028;42.642;23.310;2023-04-19T05:19:20;6.82;;;3.92;;
28910;SDS011;16028;42.642;23.310;2023-04-19T05:21:47;6.00;;;4.45;;
28910;SDS011;16028;42.642;23.310;2023-04-19T05:24:15;4.72;;;3.67;;
28910;SDS011;16028;42.642;23.310;2023-04-19T05:26:42;4.80;;;4.13;;
28910;SDS011;16028;42.642;23.310;2023-04-19T05:29:09;12.60;;;3.85;;
28910;SDS011;16028;42.642;23.310;2023-04-19T05:31:35;8.98;;;3.83;;
28910;SDS011;16028;42.642;23.310;2023-04-19T05:34:02;5.75;;;4.13;;
28910;SDS011;16028;42.642;23.310;2023-04-19T05:36:29;9.90;;;4.13;;
28910;SDS011;16028;42.642;23.310;2023-04-19T05:38:56;7.55;;;5.05;;
28910;SDS011;16028;42.642;23.310;2023-04-19T05:41:24;6.88;;;4.55;;
28910;SDS011;16028;42.642;23.310;2023-04-19T05:43:51;6.95;;;4.45;;
28910;SDS011;16028;42.642;23.310;2023-04-19T05:46:18;4.63;;;4.07;;
28910;SDS011;16028;42.642;23.310;2023-04-19T05:48:44;8.43;;;4.85;;
28910;SDS011;16028;42.642;23.310;2023-04-19T05:51:12;9.18;;;4.78;;
28910;SDS011;16028;42.642;23.310;2023-04-19T05:53:41;9.38;;;4.57;;
28910;SDS011;16028;42.642;23.310;2023-04-19T05:56:08;6.72;;;4.40;;
28910;SDS011;16028;42.642;23.310;2023-04-19T05:58:36;10.40;;;4.93;;
28910;SDS011;16028;42.642;23.310;2023-04-19T06:01:03;15.68;;;5.28;;
28910;SDS011;16028;42.642;23.310;2023-04-19T06:03:30;8.32;;;5.15;;
28910;SDS011;16028;42.642;23.310;2023-04-19T06:05:57;6.80;;;5.10;;
28910;SDS011;16028;42.642;23.310;2023-04-19T06:08:24;8.43;;;5.90;;
28910;SDS011;16028;42.642;23.310;2023-04-19T06:10:51;7.68;;;5.53;;
28910;SDS011;16028;42.642;23.310;2023-04-19T06:13:20;7.00;;;5.72;;
28910;SDS011;16028;42.642;23.310;2023-04-19T06:15:48;8.40;;;5.63;;
28910;SDS011;16028;42.642;23.310;2023-04-19T06:18:15;8.50;;;5.38;;
28910;SDS011;16028;42.642;23.310;2023-04-19T06:20:42;4.80;;;4.30;;
28910;SDS011;16028;42.642;23.310;2023-04-19T06:23:08;12.98;;;5.30;;
28910;SDS011;16028;42.642;23.310;2023-04-19T06:25:37;8.88;;;5.10;;
28910;SDS011;16028;42.642;23.310;2023-04-19T06:28:03;7.20;;;5.00;;
28910;SDS011;16028;42.642;23.310;2023-04-19T06:30:30;12.07;;;5.13;;
28910;SDS011;16028;42.642;23.310;2023-04-19T06:32:59;10.20;;;4.72;;
28910;SDS011;16028;42.642;23.310;2023-04-19T06:35:25;5.75;;;4.35;;
28910;SDS011;16028;42.642;23.310;2023-04-19T06:37:52;9.57;;;4.47;;
28910;SDS011;16028;42.642;23.310;2023-04-19T06:40:19;7.07;;;4.30;;
28910;SDS011;16028;42.642;23.310;2023-04-19T06:42:46;5.07;;;4.15;;
28910;SDS011;16028;42.642;23.310;2023-04-19T06:45:12;9.63;;;4.68;;
28910;SDS011;16028;42.642;23.310;2023-04-19T06:47:40;7.15;;;4.40;;
28910;SDS011;16028;42.642;23.310;2023-04-19T06:50:09;4.57;;;3.30;;
28910;SDS011;16028;42.642;23.310;2023-04-19T06:52:36;6.65;;;3.55;;
28910;SDS011;16028;42.642;23.310;2023-04-19T06:55:03;5.03;;;4.00;;
28910;SDS011;16028;42.642;23.310;2023-04-19T06:57:31;5.18;;;3.90;;
28910;SDS011;16028;42.642;23.310;2023-04-19T06:59:58;4.25;;;3.50;;
28910;SDS011;16028;42.642;23.310;2023-04-19T07:02:24;4.32;;;3.38;;
28910;SDS011;16028;42.642;23.310;2023-04-19T07:04:51;4.90;;;3.70;;
28910;SDS011;16028;42.642;23.310;2023-04-19T07:07:19;5.10;;;3.83;;
28910;SDS011;16028;42.642;23.310;2023-04-19T07:09:46;4.75;;;3.60;;
28910;SDS011;16028;42.642;23.310;2023-04-19T07:12:13;4.38;;;3.42;;
28910;SDS011;16028;42.642;23.310;2023-04-19T07:14:39;4.00;;;3.55;;
28910;SDS011;16028;42.642;23.310;2023-04-19T07:17:06;3.75;;;3.03;;
28910;SDS011;16028;42.642;23.310;2023-04-19T07:19:33;4.40;;;3.30;;
28910;SDS011;16028;42.642;23.310;2023-04-19T07:22:01;4.03;;;3.40;;
28910;SDS011;16028;42.642;23.310;2023-04-19T07:24:29;5.82;;;4.15;;
28910;SDS011;16028;42.642;23.310;2023-04-19T07:26:56;7.65;;;3.63;;
28910;SDS011;16028;42.642;23.310;2023-04-19T07:29:23;4.25;;;3.35;;
28910;SDS011;16028;42.642;23.310;2023-04-19T07:31:49;3.60;;;3.25;;
28910;SDS011;16028;42.642;23.310;2023-04-19T07:34:19;4.28;;;3.20;;
28910;SDS011;16028;42.642;23.310;2023-04-19T07:36:46;6.47;;;3.45;;
28910;SDS011;16028;42.642;23.310;2023-04-19T07:39:12;7.32;;;3.28;;
28910;SDS011;16028;42.642;23.310;2023-04-19T07:41:40;4.50;;;3.28;;
28910;SDS011;16028;42.642;23.310;2023-04-19T07:44:07;4.72;;;3.22;;
28910;SDS011;16028;42.642;23.310;2023-04-19T07:46:35;3.03;;;2.70;;
28910;SDS011;16028;42.642;23.310;2023-04-19T07:49:02;3.45;;;3.00;;
28910;SDS011;16028;42.642;23.310;2023-04-19T07:51:29;3.40;;;2.90;;
28910;SDS011;16028;42.642;23.310;2023-04-19T07:53:56;6.18;;;3.42;;
28910;SDS011;16028;42.642;23.310;2023-04-19T07:56:22;6.05;;;4.28;;
28910;SDS011;16028;42.642;23.310;2023-04-19T07:58:51;8.00;;;3.15;;
28910;SDS011;16028;42.642;23.310;2023-04-19T08:01:18;3.67;;;3.15;;
28910;SDS011;16028;42.642;23.310;2023-04-19T08:03:45;3.90;;;2.80;;
28910;SDS011;16028;42.642;23.310;2023-04-19T08:06:12;4.97;;;3.20;;
28910;SDS011;16028;42.642;23.310;2023-04-19T08:08:38;3.67;;;2.75;;
28910;SDS011;16028;42.642;23.310;2023-04-19T08:11:05;3.25;;;2.85;;
28910;SDS011;16028;42.642;23.310;2023-04-19T08:13:32;6.80;;;3.58;;
28910;SDS011;16028;42.642;23.310;2023-04-19T08:16:00;5.70;;;3.65;;
28910;SDS011;16028;42.642;23.310;2023-04-19T08:18:27;3.90;;;3.20;;
28910;SDS011;16028;42.642;23.310;2023-04-19T08:20:54;4.20;;;3.78;;
28910;SDS011;16028;42.642;23.310;2023-04-19T08:23:21;5.32;;;3.42;;
28910;SDS011;16028;42.642;23.310;2023-04-19T08:25:48;5.03;;;3.30;;
28910;SDS011;16028;42.642;23.310;2023-04-19T08:28:15;5.13;;;3.30;;
28910;SDS011;16028;42.642;23.310;2023-04-19T08:30:42;4.82;;;3.45;;
28910;SDS011;16028;42.642;23.310;2023-04-19T08:33:10;3.85;;;3.30;;
28910;SDS011;16028;42.642;23.310;2023-04-19T08:35:36;3.70;;;2.90;;
28910;SDS011;16028;42.642;23.310;2023-04-19T08:38:05;5.22;;;3.03;;
28910;SDS011;16028;42.642;23.310;2023-04-19T08:40:31;5.05;;;3.13;;
28910;SDS011;16028;42.642;23.310;2023-04-19T08:42:59;5.45;;;3.10;;
28910;SDS011;16028;42.642;23.310;2023-04-19T08:45:31;3.88;;;3.08;;
28910;SDS011;16028;42.642;23.310;2023-04-19T08:47:59;4.38;;;3.15;;
28910;SDS011;16028;42.642;23.310;2023-04-19T08:50:31;5.85;;;3.58;;
28910;SDS011;16028;42.642;23.310;2023-04-19T08:52:58;4.90;;;2.97;;
28910;SDS011;16028;42.642;23.310;2023-04-19T08:55:26;4.47;;;3.28;;
28910;SDS011;16028;42.642;23.310;2023-04-19T08:57:54;4.13;;;3.40;;
28910;SDS011;16028;42.642;23.310;2023-04-19T09:00:21;4.57;;;3.50;;
28910;SDS011;16028;42.642;23.310;2023-04-19T09:02:49;4.28;;;3.30;;
28910;SDS011;16028;42.642;23.310;2023-04-19T09:05:17;4.32;;;3.38;;
28910;SDS011;16028;42.642;23.310;2023-04-19T09:07:45;6.25;;;3.80;;
28910;SDS011;16028;42.642;23.310;2023-04-19T09:10:13;4.55;;;3.22;;
28910;SDS011;16028;42.642;23.310;2023-04-19T09:12:41;2.45;;;2.20;;
28910;SDS011;16028;42.642;23.310;2023-04-19T09:15:08;5.68;;;3.00;;
28910;SDS011;16028;42.642;23.310;2023-04-19T09:17:35;3.90;;;2.40;;
28910;SDS011;16028;42.642;23.310;2023-04-19T09:20:03;6.50;;;3.33;;
28910;SDS011;16028;42.642;23.310;2023-04-19T09:22:31;4.65;;;3.30;;
28910;SDS011;16028;42.642;23.310;2023-04-19T09:24:59;3.75;;;3.25;;
28910;SDS011;16028;42.642;23.310;2023-04-19T09:27:27;5.72;;;3.15;;
28910;SDS011;16028;42.642;23.310;2023-04-19T09:29:55;3.13;;;2.80;;
28910;SDS011;16028;42.642;23.310;2023-04-19T09:32:23;3.80;;;2.92;;
28910;SDS011;16028;42.642;23.310;2023-04-19T09:34:51;5.05;;;3.50;;
28910;SDS011;16028;42.642;23.310;2023-04-19T09:37:19;5.25;;;3.05;;
28910;SDS011;16028;42.642;23.310;2023-04-19T09:39:46;6.05;;;2.80;;
28910;SDS011;16028;42.642;23.310;2023-04-19T09:42:14;4.00;;;3.20;;
28910;SDS011;16028;42.642;23.310;2023-04-19T09:44:54;4.30;;;3.80;;
28910;SDS011;16028;42.642;23.310;2023-04-19T09:47:21;5.68;;;2.90;;
28910;SDS011;16028;42.642;23.310;2023-04-19T09:50:02;7.53;;;2.83;;
28910;SDS011;16028;42.642;23.310;2023-04-19T09:52:31;4.35;;;2.95;;
28910;SDS011;16028;42.642;23.310;2023-04-19T09:54:59;3.90;;;2.55;;
28910;SDS011;16028;42.642;23.310;2023-04-19T09:57:27;5.38;;;3.05;;
28910;SDS011;16028;42.642;23.310;2023-04-19T09:59:54;2.85;;;2.55;;
28910;SDS011;16028;42.642;23.310;2023-04-19T10:02:21;3.42;;;2.60;;
28910;SDS011;16028;42.642;23.310;2023-04-19T10:04:51;3.47;;;2.25;;
28910;SDS011;16028;42.642;23.310;2023-04-19T10:07:21;3.08;;;2.53;;
28910;SDS011;16028;42.642;23.310;2023-04-19T10:09:48;3.33;;;2.53;;
28910;SDS011;16028;42.642;23.310;2023-04-19T10:12:16;3.10;;;2.53;;
28910;SDS011;16028;42.642;23.310;2023-04-19T10:14:44;3.05;;;2.60;;
28910;SDS011;16028;42.642;23.310;2023-04-19T10:17:11;2.63;;;2.42;;
28910;SDS011;16028;42.642;23.310;2023-04-19T10:19:38;3.05;;;2.30;;
28910;SDS011;16028;42.642;23.310;2023-04-19T10:22:08;5.38;;;2.45;;
28910;SDS011;16028;42.642;23.310;2023-04-19T10:24:35;5.78;;;2.22;;
28910;SDS011;16028;42.642;23.310;2023-04-19T10:27:06;4.45;;;2.35;;
28910;SDS011;16028;42.642;23.310;2023-04-19T10:29:56;2.75;;;2.33;;
28910;SDS011;16028;42.642;23.310;2023-04-19T10:32:25;3.20;;;2.20;;
28910;SDS011;16028;42.642;23.310;2023-04-19T10:34:53;4.53;;;2.03;;
28910;SDS011;16028;42.642;23.310;2023-04-19T10:37:24;4.75;;;2.72;;
28910;SDS011;16028;42.642;23.310;2023-04-19T10:39:51;2.65;;;2.45;;
28910;SDS011;16028;42.642;23.310;2023-04-19T10:42:18;7.07;;;2.63;;
28910;SDS011;16028;42.642;23.310;2023-04-19T10:47:50;2.95;;;2.25;;
28910;SDS011;16028;42.642;23.310;2023-04-19T10:50:17;2.55;;;2.33;;
28910;SDS011;16028;42.642;23.310;2023-04-19T10:52:44;4.47;;;2.40;;
28910;SDS011;16028;42.642;23.310;2023-04-19T10:55:14;6.18;;;2.35;;
28910;SDS011;16028;42.642;23.310;2023-04-19T10:57:59;5.07;;;1.88;;
28910;SDS011;16028;42.642;23.310;2023-04-19T11:00:27;3.33;;;2.53;;
28910;SDS011;16028;42.642;23.310;2023-04-19T11:02:58;7.15;;;2.33;;
28910;SDS011;16028;42.642;23.310;2023-04-19T11:05:26;6.97;;;2.03;;
28910;SDS011;16028;42.642;23.310;2023-04-19T11:07:52;4.90;;;2.25;;
28910;SDS011;16028;42.642;23.310;2023-04-19T11:10:30;3.45;;;2.28;;
28910;SDS011;16028;42.642;23.310;2023-04-19T11:12:57;3.00;;;2.67;;
28910;SDS011;16028;42.642;23.310;2023-04-19T11:15:24;6.10;;;2.90;;
28910;SDS011;16028;42.642;23.310;2023-04-19T11:17:51;4.53;;;3.00;;
28910;SDS011;16028;42.642;23.310;2023-04-19T11:20:21;3.40;;;2.72;;
28910;SDS011;16028;42.642;23.310;2023-04-19T11:22:50;2.58;;;2.38;;
28910;SDS011;16028;42.642;23.310;2023-04-19T11:25:17;3.08;;;2.15;;
28910;SDS011;16028;42.642;23.310;2023-04-19T11:27:46;3.53;;;2.88;;
28910;SDS011;16028;42.642;23.310;2023-04-19T11:30:14;5.10;;;2.78;;
28910;SDS011;16028;42.642;23.310;2023-04-19T11:32:43;4.70;;;2.83;;
28910;SDS011;16028;42.642;23.310;2023-04-19T11:35:12;3.10;;;2.80;;
28910;SDS011;16028;42.642;23.310;2023-04-19T11:37:40;2.95;;;2.60;;
28910;SDS011;16028;42.642;23.310;2023-04-19T11:40:07;4.03;;;3.17;;
28910;SDS011;16028;42.642;23.310;2023-04-19T11:42:34;3.08;;;2.40;;
28910;SDS011;16028;42.642;23.310;2023-04-19T11:45:02;3.08;;;2.53;;
28910;SDS011;16028;42.642;23.310;2023-04-19T11:47:29;3.17;;;2.45;;
28910;SDS011;16028;42.642;23.310;2023-04-19T11:50:28;4.63;;;2.72;;
28910;SDS011;16028;42.642;23.310;2023-04-19T11:52:58;2.58;;;2.15;;
28910;SDS011;16028;42.642;23.310;2023-04-19T11:55:25;2.50;;;2.10;;
28910;SDS011;16028;42.642;23.310;2023-04-19T11:57:52;2.42;;;2.22;;
28910;SDS011;16028;42.642;23.310;2023-04-19T12:00:25;2.25;;;2.05;;
28910;SDS011;16028;42.642;23.310;2023-04-19T12:02:53;3.03;;;2.00;;
28910;SDS011;16028;42.642;23.310;2023-04-19T12:05:20;2.75;;;1.85;;
28910;SDS011;16028;42.642;23.310;2023-04-19T12:08:00;1.95;;;1.85;;
28910;SDS011;16028;42.642;23.310;2023-04-19T12:10:28;1.67;;;1.48;;
28910;SDS011;16028;42.642;23.310;2023-04-19T12:12:55;3.05;;;1.95;;
28910;SDS011;16028;42.642;23.310;2023-04-19T12:15:22;2.28;;;1.80;;
28910;SDS011;16028;42.642;23.310;2023-04-19T12:17:55;2.45;;;2.15;;
28910;SDS011;16028;42.642;23.310;2023-04-19T12:20:30;2.20;;;1.60;;
28910;SDS011;16028;42.642;23.310;2023-04-19T12:22:58;2.50;;;1.50;;
28910;SDS011;16028;42.642;23.310;2023-04-19T12:25:27;2.60;;;2.00;;
28910;SDS011;16028;42.642;23.310;2023-04-19T12:27:54;1.90;;;1.75;;
28910;SDS011;16028;42.642;23.310;2023-04-19T12:30:21;5.10;;;2.17;;
28910;SDS011;16028;42.642;23.310;2023-04-19T12:32:48;3.25;;;2.00;;
28910;SDS011;16028;42.642;23.310;2023-04-19T12:35:16;1.90;;;1.73;;
28910;SDS011;16028;42.642;23.310;2023-04-19T12:37:43;1.88;;;1.70;;
28910;SDS011;16028;42.642;23.310;2023-04-19T12:40:12;1.65;;;1.55;;
28910;SDS011;16028;42.642;23.310;2023-04-19T12:42:39;1.80;;;1.70;;
28910;SDS011;16028;42.642;23.310;2023-04-19T12:45:07;5.53;;;1.95;;
28910;SDS011;16028;42.642;23.310;2023-04-19T12:47:34;2.72;;;2.17;;
28910;SDS011;16028;42.642;23.310;2023-04-19T12:50:01;2.60;;;2.13;;
28910;SDS011;16028;42.642;23.310;2023-04-19T12:52:28;2.28;;;2.08;;
28910;SDS011;16028;42.642;23.310;2023-04-19T12:54:55;3.55;;;2.42;;
28910;SDS011;16028;42.642;23.310;2023-04-19T12:57:30;2.88;;;2.58;;
28910;SDS011;16028;42.642;23.310;2023-04-19T12:59:57;4.18;;;3.65;;
28910;SDS011;16028;42.642;23.310;2023-04-19T13:02:24;7.13;;;4.20;;
28910;SDS011;16028;42.642;23.310;2023-04-19T13:04:51;10.15;;;4.60;;
28910;SDS011;16028;42.642;23.310;2023-04-19T13:07:19;7.35;;;5.53;;
28910;SDS011;16028;42.642;23.310;2023-04-19T13:09:46;8.18;;;6.55;;
28910;SDS011;16028;42.642;23.310;2023-04-19T13:12:13;9.70;;;6.13;;
28910;SDS011;16028;42.642;23.310;2023-04-19T13:14:41;4.25;;;3.42;;
28910;SDS011;16028;42.642;23.310;2023-04-19T13:17:10;4.38;;;2.50;;
28910;SDS011;16028;42.642;23.310;2023-04-19T13:19:37;4.03;;;2.13;;
28910;SDS011;16028;42.642;23.310;2023-04-19T13:22:03;3.97;;;2.50;;
28910;SDS011;16028;42.642;23.310;2023-04-19T13:24:31;2.35;;;1.92;;
28910;SDS011;16028;42.642;23.310;2023-04-19T13:26:58;5.70;;;2.28;;
28910;SDS011;16028;42.642;23.310;2023-04-19T13:29:25;5.40;;;2.33;;
28910;SDS011;16028;42.642;23.310;2023-04-19T13:31:54;4.15;;;2.20;;
28910;SDS011;16028;42.642;23.310;2023-04-19T13:34:21;5.97;;;2.67;;
28910;SDS011;16028;42.642;23.310;2023-04-19T13:36:48;2.50;;;1.98;;
28910;SDS011;16028;42.642;23.310;2023-04-19T13:39:15;3.95;;;2.33;;
28910;SDS011;16028;42.642;23.310;2023-04-19T13:41:41;4.45;;;2.45;;
28910;SDS011;16028;42.642;23.310;2023-04-19T13:44:08;5.45;;;2.53;;
28910;SDS011;16028;42.642;23.310;2023-04-19T13:46:35;7.40;;;2.42;;
28910;SDS011;16028;42.642;23.310;2023-04-19T13:49:04;3.95;;;2.40;;
28910;SDS011;16028;42.642;23.310;2023-04-19T13:51:30;5.68;;;2.47;;
28910;SDS011;16028;42.642;23.310;2023-04-19T13:53:57;3.97;;;2.63;;
28910;SDS011;16028;42.642;23.310;2023-04-19T13:56:24;3.75;;;2.63;;
28910;SDS011;16028;42.642;23.310;2023-04-19T13:58:51;4.10;;;2.95;;
28910;SDS011;16028;42.642;23.310;2023-04-19T14:01:17;4.90;;;3.30;;
28910;SDS011;16028;42.642;23.310;2023-04-19T14:03:44;3.63;;;2.65;;
28910;SDS011;16028;42.642;23.310;2023-04-19T14:06:13;5.93;;;3.22;;
28910;SDS011;16028;42.642;23.310;2023-04-19T14:08:39;5.10;;;3.25;;
28910;SDS011;16028;42.642;23.310;2023-04-19T14:11:06;5.95;;;4.25;;
28910;SDS011;16028;42.642;23.310;2023-04-19T14:13:33;7.40;;;3.65;;
28910;SDS011;16028;42.642;23.310;2023-04-19T14:16:01;6.75;;;3.33;;
28910;SDS011;16028;42.642;23.310;2023-04-19T14:18:28;4.45;;;3.60;;
28910;SDS011;16028;42.642;23.310;2023-04-19T14:20:55;5.47;;;3.78;;
28910;SDS011;16028;42.642;23.310;2023-04-19T14:23:23;7.28;;;4.00;;
28910;SDS011;16028;42.642;23.310;2023-04-19T14:25:49;5.63;;;3.67;;
28910;SDS011;16028;42.642;23.310;2023-04-19T14:28:16;5.20;;;3.60;;
28910;SDS011;16028;42.642;23.310;2023-04-19T14:30:44;7.72;;;3.92;;
28910;SDS011;16028;42.642;23.310;2023-04-19T14:33:10;5.18;;;4.07;;
28910;SDS011;16028;42.642;23.310;2023-04-19T14:35:37;9.98;;;4.15;;
28910;SDS011;16028;42.642;23.310;2023-04-19T14:38:06;7.60;;;5.40;;